sensor_id;sensor_type;location;lat;lon;timestamp;pressure;altitude;pressure_sealevel;temperature;humidity
42859;BME280;28505;56.970;40.998;2024-03-02T00:03:39;101510.34;;;-0.64;100.00
42859;BME280;28505;56.970;40.998;2024-03-02T00:09:03;101487.53;;;-0.65;100.00
42859;BME280;28505;56.970;40.998;2024-03-02T00:14:29;101498.19;;;-0.73;100.00
42859;BME280;28505;56.970;40.998;2024-03-02T00:19:52;101513.75;;;-0.55;100.00
42859;BME280;28505;56.970;40.998;2024-03-02T00:25:15;101507.41;;;-0.69;100.00
42859;BME280;28505;56.970;40.998;2024-03-02T00:30:51;101514.53;;;-0.69;100.00
42859;BME280;28505;56.970;40.998;2024-03-02T00:36:25;101517.91;;;-0.90;100.00
42859;BME280;28505;56.970;40.998;2024-03-02T00:41:49;101506.22;;;-0.81;100.00
42859;BME280;28505;56.970;40.998;2024-03-02T00:47:11;101521.00;;;-0.72;100.00
42859;BME280;28505;56.970;40.998;2024-03-02T00:52:34;101513.38;;;-0.67;100.00
42859;BME280;28505;56.970;40.998;2024-03-02T00:57:57;101501.59;;;-0.64;100.00
42859;BME280;28505;56.970;40.998;2024-03-02T01:03:22;101522.38;;;-0.76;100.00
42859;BME280;28505;56.970;40.998;2024-03-02T01:08:45;101513.16;;;-0.80;100.00
42859;BME280;28505;56.970;40.998;2024-03-02T01:14:09;101513.97;;;-0.80;100.00
42859;BME280;28505;56.970;40.998;2024-03-02T01:19:31;101513.22;;;-0.88;100.00
42859;BME280;28505;56.970;40.998;2024-03-02T01:24:54;101516.09;;;-0.75;100.00
42859;BME280;28505;56.970;40.998;2024-03-02T01:30:17;101524.41;;;-0.78;100.00
42859;BME280;28505;56.970;40.998;2024-03-02T01:35:39;101529.44;;;-0.54;100.00
42859;BME280;28505;56.970;40.998;2024-03-02T01:41:27;101536.28;;;-0.59;100.00
42859;BME280;28505;56.970;40.998;2024-03-02T01:47:15;101526.75;;;-0.98;100.00
42859;BME280;28505;56.970;40.998;2024-03-02T01:52:38;101541.00;;;-0.84;100.00
42859;BME280;28505;56.970;40.998;2024-03-02T01:58:01;101536.91;;;-0.72;100.00
42859;BME280;28505;56.970;40.998;2024-03-02T02:03:23;101521.41;;;-0.75;100.00
42859;BME280;28505;56.970;40.998;2024-03-02T02:08:46;101531.53;;;-0.64;100.00
42859;BME280;28505;56.970;40.998;2024-03-02T02:14:09;101535.00;;;-0.63;100.00
42859;BME280;28505;56.970;40.998;2024-03-02T02:19:32;101534.94;;;-0.55;100.00
42859;BME280;28505;56.970;40.998;2024-03-02T02:25:19;101531.88;;;-0.82;100.00
42859;BME280;28505;56.970;40.998;2024-03-02T02:30:41;101542.34;;;-0.65;100.00
42859;BME280;28505;56.970;40.998;2024-03-02T02:36:04;101539.56;;;-0.72;100.00
42859;BME280;28505;56.970;40.998;2024-03-02T02:41:27;101523.53;;;-0.93;100.00
42859;BME280;28505;56.970;40.998;2024-03-02T02:46:49;101550.66;;;-0.54;100.00
42859;BME280;28505;56.970;40.998;2024-03-02T02:52:12;101549.38;;;-0.58;100.00
42859;BME280;28505;56.970;40.998;2024-03-02T02:57:34;101562.22;;;-0.69;100.00
42859;BME280;28505;56.970;40.998;2024-03-02T03:02:58;101547.06;;;-0.61;100.00
42859;BME280;28505;56.970;40.998;2024-03-02T03:08:20;101551.47;;;-0.53;100.00
42859;BME280;28505;56.970;40.998;2024-03-02T03:13:45;101545.81;;;-0.50;100.00
42859;BME280;28505;56.970;40.998;2024-03-02T03:19:07;101546.50;;;-0.71;100.00
42859;BME280;28505;56.970;40.998;2024-03-02T03:24:29;101546.66;;;-0.87;100.00
42859;BME280;28505;56.970;40.998;2024-03-02T03:29:52;101556.69;;;-0.83;100.00
42859;BME280;28505;56.970;40.998;2024-03-02T03:35:29;101557.47;;;-0.59;100.00
42859;BME280;28505;56.970;40.998;2024-03-02T03:40:51;101548.00;;;-0.68;100.00
42859;BME280;28505;56.970;40.998;2024-03-02T03:46:13;101563.88;;;-0.68;100.00
42859;BME280;28505;56.970;40.998;2024-03-02T03:51:47;101571.63;;;-0.67;100.00
42859;BME280;28505;56.970;40.998;2024-03-02T03:57:09;101561.88;;;-0.89;100.00
42859;BME280;28505;56.970;40.998;2024-03-02T04:02:31;101563.78;;;-0.75;100.00
42859;BME280;28505;56.970;40.998;2024-03-02T04:07:54;101579.34;;;-0.80;100.00
42859;BME280;28505;56.970;40.998;2024-03-02T04:13:29;101569.06;;;-0.75;100.00
42859;BME280;28505;56.970;40.998;2024-03-02T04:18:51;101561.41;;;-0.70;100.00
42859;BME280;28505;56.970;40.998;2024-03-02T04:24:14;101575.66;;;-0.71;100.00
42859;BME280;28505;56.970;40.998;2024-03-02T04:29:37;101576.16;;;-0.76;100.00
42859;BME280;28505;56.970;40.998;2024-03-02T04:34:59;101554.72;;;-0.81;100.00
42859;BME280;28505;56.970;40.998;2024-03-02T04:40:22;101577.00;;;-0.75;100.00
42859;BME280;28505;56.970;40.998;2024-03-02T04:45:58;101584.72;;;-0.88;100.00
42859;BME280;28505;56.970;40.998;2024-03-02T04:51:21;101586.38;;;-0.87;100.00
42859;BME280;28505;56.970;40.998;2024-03-02T04:56:43;101592.91;;;-0.75;100.00
42859;BME280;28505;56.970;40.998;2024-03-02T05:02:23;101589.06;;;-0.96;100.00
42859;BME280;28505;56.970;40.998;2024-03-02T05:07:44;101586.03;;;-0.84;100.00
42859;BME280;28505;56.970;40.998;2024-03-02T05:13:07;101594.66;;;-0.53;100.00
42859;BME280;28505;56.970;40.998;2024-03-02T05:18:29;101600.97;;;-0.54;100.00
42859;BME280;28505;56.970;40.998;2024-03-02T05:23:52;101596.44;;;-0.45;100.00
42859;BME280;28505;56.970;40.998;2024-03-02T05:29:26;101589.81;;;-0.64;100.00
42859;BME280;28505;56.970;40.998;2024-03-02T05:35:01;101601.72;;;-0.45;100.00
42859;BME280;28505;56.970;40.998;2024-03-02T05:40:25;101605.59;;;-0.33;100.00
42859;BME280;28505;56.970;40.998;2024-03-02T05:45:47;101578.22;;;-0.63;100.00
42859;BME280;28505;56.970;40.998;2024-03-02T05:51:23;101605.00;;;-0.58;100.00
42859;BME280;28505;56.970;40.998;2024-03-02T05:56:45;101580.34;;;-0.58;100.00
42859;BME280;28505;56.970;40.998;2024-03-02T06:02:21;101599.97;;;-0.53;100.00
42859;BME280;28505;56.970;40.998;2024-03-02T06:07:43;101607.50;;;-0.27;100.00
42859;BME280;28505;56.970;40.998;2024-03-02T06:13:07;101606.56;;;-0.49;100.00
42859;BME280;28505;56.970;40.998;2024-03-02T06:18:42;101594.75;;;-0.61;100.00
42859;BME280;28505;56.970;40.998;2024-03-02T06:24:05;101603.81;;;-0.40;100.00
42859;BME280;28505;56.970;40.998;2024-03-02T06:29:27;101611.41;;;-0.52;100.00
42859;BME280;28505;56.970;40.998;2024-03-02T06:35:14;101602.75;;;-0.31;100.00
42859;BME280;28505;56.970;40.998;2024-03-02T06:41:07;101609.22;;;-0.49;100.00
42859;BME280;28505;56.970;40.998;2024-03-02T06:46:43;101616.72;;;-0.52;100.00
42859;BME280;28505;56.970;40.998;2024-03-02T06:52:05;101624.97;;;-0.32;100.00
42859;BME280;28505;56.970;40.998;2024-03-02T06:57:29;101617.63;;;-0.30;100.00
42859;BME280;28505;56.970;40.998;2024-03-02T07:02:51;101629.50;;;-0.41;100.00
42859;BME280;28505;56.970;40.998;2024-03-02T07:08:14;101605.19;;;-0.44;100.00
42859;BME280;28505;56.970;40.998;2024-03-02T07:13:37;101597.00;;;-0.35;100.00
42859;BME280;28505;56.970;40.998;2024-03-02T07:19:06;101608.25;;;0.12;100.00
42859;BME280;28505;56.970;40.998;2024-03-02T07:24:28;101597.19;;;0.08;100.00
42859;BME280;28505;56.970;40.998;2024-03-02T07:29:51;101600.41;;;-0.26;100.00
42859;BME280;28505;56.970;40.998;2024-03-02T07:35:13;101604.50;;;0.06;100.00
42859;BME280;28505;56.970;40.998;2024-03-02T07:40:48;101598.19;;;-0.08;100.00
42859;BME280;28505;56.970;40.998;2024-03-02T07:46:13;101597.91;;;0.02;100.00
42859;BME280;28505;56.970;40.998;2024-03-02T07:51:37;101603.59;;;-0.01;100.00
42859;BME280;28505;56.970;40.998;2024-03-02T07:57:01;101606.94;;;0.37;100.00
42859;BME280;28505;56.970;40.998;2024-03-02T08:02:25;101599.56;;;0.33;100.00
42859;BME280;28505;56.970;40.998;2024-03-02T08:07:48;101596.63;;;0.13;100.00
42859;BME280;28505;56.970;40.998;2024-03-02T08:13:15;101607.53;;;0.18;100.00
42859;BME280;28505;56.970;40.998;2024-03-02T08:18:39;101614.47;;;-0.11;100.00
42859;BME280;28505;56.970;40.998;2024-03-02T08:24:02;101617.13;;;-0.11;100.00
42859;BME280;28505;56.970;40.998;2024-03-02T08:29:25;101608.44;;;0.10;100.00
42859;BME280;28505;56.970;40.998;2024-03-02T08:34:47;101612.47;;;0.21;100.00
42859;BME280;28505;56.970;40.998;2024-03-02T08:40:11;101596.31;;;0.52;100.00
42859;BME280;28505;56.970;40.998;2024-03-02T08:45:39;101600.22;;;0.20;100.00
42859;BME280;28505;56.970;40.998;2024-03-02T08:51:03;101616.31;;;0.33;100.00
42859;BME280;28505;56.970;40.998;2024-03-02T08:56:28;101602.50;;;0.08;100.00
42859;BME280;28505;56.970;40.998;2024-03-02T09:02:03;101597.97;;;0.38;100.00
42859;BME280;28505;56.970;40.998;2024-03-02T09:07:26;101603.66;;;0.35;100.00
42859;BME280;28505;56.970;40.998;2024-03-02T09:12:48;101600.09;;;0.28;100.00
42859;BME280;28505;56.970;40.998;2024-03-02T09:18:11;101611.72;;;0.12;100.00
42859;BME280;28505;56.970;40.998;2024-03-02T09:23:34;101606.34;;;-0.09;100.00
42859;BME280;28505;56.970;40.998;2024-03-02T09:28:56;101616.66;;;0.30;100.00
42859;BME280;28505;56.970;40.998;2024-03-02T09:34:18;101606.31;;;-0.24;100.00
42859;BME280;28505;56.970;40.998;2024-03-02T09:39:53;101599.56;;;-0.12;100.00
42859;BME280;28505;56.970;40.998;2024-03-02T09:45:17;101593.44;;;-0.27;100.00
42859;BME280;28505;56.970;40.998;2024-03-02T09:50:40;101605.50;;;-0.25;100.00
42859;BME280;28505;56.970;40.998;2024-03-02T09:56:03;101613.75;;;-0.05;100.00
42859;BME280;28505;56.970;40.998;2024-03-02T10:01:26;101606.50;;;0.19;100.00
42859;BME280;28505;56.970;40.998;2024-03-02T10:06:49;101621.19;;;0.51;100.00
42859;BME280;28505;56.970;40.998;2024-03-02T10:12:31;101592.53;;;-0.05;100.00
42859;BME280;28505;56.970;40.998;2024-03-02T10:17:53;101599.03;;;0.08;100.00
42859;BME280;28505;56.970;40.998;2024-03-02T10:23:16;101612.47;;;-0.09;100.00
42859;BME280;28505;56.970;40.998;2024-03-02T10:28:46;101597.09;;;0.31;100.00
42859;BME280;28505;56.970;40.998;2024-03-02T10:34:10;101610.06;;;-0.04;100.00
42859;BME280;28505;56.970;40.998;2024-03-02T10:39:35;101615.16;;;0.42;100.00
42859;BME280;28505;56.970;40.998;2024-03-02T10:45:12;101619.81;;;0.55;100.00
42859;BME280;28505;56.970;40.998;2024-03-02T10:50:34;101619.75;;;0.19;100.00
42859;BME280;28505;56.970;40.998;2024-03-02T10:55:58;101607.59;;;0.25;100.00
42859;BME280;28505;56.970;40.998;2024-03-02T11:01:39;101611.91;;;0.26;100.00
42859;BME280;28505;56.970;40.998;2024-03-02T11:07:14;101613.03;;;0.16;100.00
42859;BME280;28505;56.970;40.998;2024-03-02T11:12:53;101621.59;;;0.33;100.00
42859;BME280;28505;56.970;40.998;2024-03-02T11:18:42;101619.75;;;-0.11;100.00
42859;BME280;28505;56.970;40.998;2024-03-02T11:29:46;101613.47;;;-0.10;100.00
42859;BME280;28505;56.970;40.998;2024-03-02T11:35:12;101617.16;;;0.55;100.00
42859;BME280;28505;56.970;40.998;2024-03-02T11:40:35;101611.19;;;0.17;100.00
42859;BME280;28505;56.970;40.998;2024-03-02T11:46:03;101606.88;;;-0.14;100.00
42859;BME280;28505;56.970;40.998;2024-03-02T11:51:26;101609.06;;;0.12;100.00
42859;BME280;28505;56.970;40.998;2024-03-02T11:56:48;101618.50;;;0.00;100.00
42859;BME280;28505;56.970;40.998;2024-03-02T12:02:16;101631.09;;;0.13;100.00
42859;BME280;28505;56.970;40.998;2024-03-02T12:07:41;101630.75;;;0.16;100.00
42859;BME280;28505;56.970;40.998;2024-03-02T12:13:05;101635.16;;;0.23;100.00
42859;BME280;28505;56.970;40.998;2024-03-02T12:18:36;101630.56;;;0.03;100.00
42859;BME280;28505;56.970;40.998;2024-03-02T12:24:00;101630.00;;;-0.22;100.00
42859;BME280;28505;56.970;40.998;2024-03-02T12:29:23;101634.13;;;0.10;100.00
42859;BME280;28505;56.970;40.998;2024-03-02T12:34:58;101616.13;;;-0.10;100.00
42859;BME280;28505;56.970;40.998;2024-03-02T12:40:22;101634.50;;;-0.08;100.00
42859;BME280;28505;56.970;40.998;2024-03-02T12:45:45;101649.78;;;0.05;100.00
42859;BME280;28505;56.970;40.998;2024-03-02T12:51:08;101635.84;;;0.03;100.00
42859;BME280;28505;56.970;40.998;2024-03-02T12:56:32;101633.41;;;0.01;100.00
42859;BME280;28505;56.970;40.998;2024-03-02T13:01:56;101645.09;;;-0.08;100.00
42859;BME280;28505;56.970;40.998;2024-03-02T13:07:25;101635.47;;;-0.24;100.00
42859;BME280;28505;56.970;40.998;2024-03-02T13:12:50;101631.81;;;-0.23;100.00
42859;BME280;28505;56.970;40.998;2024-03-02T13:18:18;101638.38;;;-0.34;100.00
42859;BME280;28505;56.970;40.998;2024-03-02T13:23:41;101636.38;;;-0.17;100.00
42859;BME280;28505;56.970;40.998;2024-03-02T13:29:03;101633.53;;;-0.45;100.00
42859;BME280;28505;56.970;40.998;2024-03-02T13:34:26;101630.16;;;-0.24;100.00
42859;BME280;28505;56.970;40.998;2024-03-02T13:39:49;101636.94;;;-0.07;100.00
42859;BME280;28505;56.970;40.998;2024-03-02T13:45:11;101638.41;;;-0.19;100.00
42859;BME280;28505;56.970;40.998;2024-03-02T13:50:34;101650.09;;;-0.13;100.00
42859;BME280;28505;56.970;40.998;2024-03-02T13:55:56;101654.25;;;0.19;100.00
42859;BME280;28505;56.970;40.998;2024-03-02T14:01:31;101651.94;;;0.45;100.00
42859;BME280;28505;56.970;40.998;2024-03-02T14:06:54;101636.88;;;0.31;100.00
42859;BME280;28505;56.970;40.998;2024-03-02T14:12:18;101626.91;;;-0.11;100.00
42859;BME280;28505;56.970;40.998;2024-03-02T14:17:41;101638.69;;;-0.29;100.00
42859;BME280;28505;56.970;40.998;2024-03-02T14:23:16;101654.88;;;-0.09;100.00
42859;BME280;28505;56.970;40.998;2024-03-02T14:28:40;101643.38;;;-0.16;100.00
42859;BME280;28505;56.970;40.998;2024-03-02T14:34:11;101651.13;;;-0.14;100.00
42859;BME280;28505;56.970;40.998;2024-03-02T14:39:46;101664.22;;;-0.13;100.00
42859;BME280;28505;56.970;40.998;2024-03-02T14:45:08;101662.53;;;-0.14;100.00
42859;BME280;28505;56.970;40.998;2024-03-02T14:50:31;101657.25;;;-0.52;100.00
42859;BME280;28505;56.970;40.998;2024-03-02T14:55:53;101673.44;;;-0.47;100.00
42859;BME280;28505;56.970;40.998;2024-03-02T15:01:18;101666.59;;;-0.41;100.00
42859;BME280;28505;56.970;40.998;2024-03-02T15:06:55;101675.81;;;-0.52;100.00
42859;BME280;28505;56.970;40.998;2024-03-02T15:12:18;101684.22;;;-0.48;100.00
42859;BME280;28505;56.970;40.998;2024-03-02T15:17:41;101679.09;;;-0.50;100.00
42859;BME280;28505;56.970;40.998;2024-03-02T15:23:03;101684.38;;;-0.50;100.00
42859;BME280;28505;56.970;40.998;2024-03-02T15:28:25;101670.28;;;-0.65;100.00
42859;BME280;28505;56.970;40.998;2024-03-02T15:34:06;101678.28;;;-0.73;100.00
42859;BME280;28505;56.970;40.998;2024-03-02T15:39:42;101684.09;;;-0.55;100.00
42859;BME280;28505;56.970;40.998;2024-03-02T15:45:18;101665.25;;;-0.60;100.00
42859;BME280;28505;56.970;40.998;2024-03-02T15:50:52;101681.84;;;-0.66;100.00
42859;BME280;28505;56.970;40.998;2024-03-02T15:56:15;101679.56;;;-0.69;100.00
42859;BME280;28505;56.970;40.998;2024-03-02T16:01:37;101670.63;;;-0.68;100.00
42859;BME280;28505;56.970;40.998;2024-03-02T16:07:12;101668.59;;;-0.89;100.00
42859;BME280;28505;56.970;40.998;2024-03-02T16:12:35;101671.09;;;-0.87;100.00
42859;BME280;28505;56.970;40.998;2024-03-02T16:17:57;101656.69;;;-1.08;100.00
42859;BME280;28505;56.970;40.998;2024-03-02T16:23:21;101658.25;;;-0.99;100.00
42859;BME280;28505;56.970;40.998;2024-03-02T16:28:44;101689.66;;;-0.96;100.00
42859;BME280;28505;56.970;40.998;2024-03-02T16:34:07;101655.22;;;-0.87;100.00
42859;BME280;28505;56.970;40.998;2024-03-02T16:39:30;101671.03;;;-0.79;100.00
42859;BME280;28505;56.970;40.998;2024-03-02T16:44:57;101691.94;;;-0.84;100.00
42859;BME280;28505;56.970;40.998;2024-03-02T16:50:20;101696.19;;;-0.75;100.00
42859;BME280;28505;56.970;40.998;2024-03-02T16:55:42;101696.94;;;-0.66;100.00
42859;BME280;28505;56.970;40.998;2024-03-02T17:01:17;101685.47;;;-0.82;100.00
42859;BME280;28505;56.970;40.998;2024-03-02T17:06:40;101698.81;;;-0.75;100.00
42859;BME280;28505;56.970;40.998;2024-03-02T17:12:03;101684.84;;;-0.92;100.00
42859;BME280;28505;56.970;40.998;2024-03-02T17:17:26;101698.53;;;-0.80;100.00
42859;BME280;28505;56.970;40.998;2024-03-02T17:22:49;101690.50;;;-0.72;100.00
42859;BME280;28505;56.970;40.998;2024-03-02T17:28:21;101678.16;;;-0.80;100.00
42859;BME280;28505;56.970;40.998;2024-03-02T17:33:44;101678.84;;;-0.86;100.00
42859;BME280;28505;56.970;40.998;2024-03-02T17:39:07;101687.94;;;-0.80;100.00
42859;BME280;28505;56.970;40.998;2024-03-02T17:44:31;101689.81;;;-0.66;100.00
42859;BME280;28505;56.970;40.998;2024-03-02T17:49:54;101670.06;;;-0.78;100.00
42859;BME280;28505;56.970;40.998;2024-03-02T17:55:17;101669.38;;;-0.80;100.00
42859;BME280;28505;56.970;40.998;2024-03-02T18:00:40;101670.06;;;-0.78;100.00
42859;BME280;28505;56.970;40.998;2024-03-02T18:06:06;101664.75;;;-0.78;100.00
42859;BME280;28505;56.970;40.998;2024-03-02T18:11:42;101670.28;;;-0.65;100.00
42859;BME280;28505;56.970;40.998;2024-03-02T18:17:18;101684.97;;;-0.62;100.00
42859;BME280;28505;56.970;40.998;2024-03-02T18:22:41;101680.63;;;-0.78;100.00
42859;BME280;28505;56.970;40.998;2024-03-02T18:28:04;101674.72;;;-0.88;100.00
42859;BME280;28505;56.970;40.998;2024-03-02T18:33:27;101678.69;;;-0.84;100.00
42859;BME280;28505;56.970;40.998;2024-03-02T18:38:49;101691.22;;;-0.78;100.00
42859;BME280;28505;56.970;40.998;2024-03-02T18:44:14;101692.53;;;-0.74;100.00
42859;BME280;28505;56.970;40.998;2024-03-02T18:49:44;101687.25;;;-0.82;100.00
42859;BME280;28505;56.970;40.998;2024-03-02T18:55:09;101706.78;;;-0.75;100.00
42859;BME280;28505;56.970;40.998;2024-03-02T19:00:43;101703.81;;;-0.80;100.00
42859;BME280;28505;56.970;40.998;2024-03-02T19:06:17;101700.38;;;-0.89;100.00
42859;BME280;28505;56.970;40.998;2024-03-02T19:11:40;101689.66;;;-0.96;100.00
42859;BME280;28505;56.970;40.998;2024-03-02T19:17:03;101715.78;;;-0.92;100.00
42859;BME280;28505;56.970;40.998;2024-03-02T19:22:25;101704.56;;;-0.95;100.00
42859;BME280;28505;56.970;40.998;2024-03-02T19:27:48;101694.22;;;-1.12;100.00
42859;BME280;28505;56.970;40.998;2024-03-02T19:33:11;101706.84;;;-1.62;100.00
42859;BME280;28505;56.970;40.998;2024-03-02T19:38:35;101703.44;;;-1.95;100.00
42859;BME280;28505;56.970;40.998;2024-03-02T19:43:58;101705.59;;;-2.07;100.00
42859;BME280;28505;56.970;40.998;2024-03-02T19:49:21;101686.94;;;-2.05;100.00
42859;BME280;28505;56.970;40.998;2024-03-02T19:54:46;101682.75;;;-1.83;100.00
42859;BME280;28505;56.970;40.998;2024-03-02T20:00:10;101694.88;;;-2.71;100.00
42859;BME280;28505;56.970;40.998;2024-03-02T20:05:33;101709.72;;;-2.78;100.00
42859;BME280;28505;56.970;40.998;2024-03-02T20:10:56;101698.19;;;-2.36;100.00
42859;BME280;28505;56.970;40.998;2024-03-02T20:16:19;101696.56;;;-2.45;100.00
42859;BME280;28505;56.970;40.998;2024-03-02T20:21:45;101717.16;;;-2.73;100.00
42859;BME280;28505;56.970;40.998;2024-03-02T20:27:08;101721.97;;;-2.36;100.00
42859;BME280;28505;56.970;40.998;2024-03-02T20:32:31;101725.09;;;-2.16;100.00
42859;BME280;28505;56.970;40.998;2024-03-02T20:37:54;101714.06;;;-3.19;100.00
42859;BME280;28505;56.970;40.998;2024-03-02T20:43:16;101730.88;;;-2.53;100.00
42859;BME280;28505;56.970;40.998;2024-03-02T20:48:40;101717.63;;;-3.37;100.00
42859;BME280;28505;56.970;40.998;2024-03-02T20:54:03;101735.75;;;-3.68;100.00
42859;BME280;28505;56.970;40.998;2024-03-02T20:59:27;101730.69;;;-2.52;100.00
42859;BME280;28505;56.970;40.998;2024-03-02T21:04:50;101734.44;;;-3.64;100.00
42859;BME280;28505;56.970;40.998;2024-03-02T21:10:13;101734.84;;;-3.50;100.00
42859;BME280;28505;56.970;40.998;2024-03-02T21:15:36;101732.47;;;-3.27;100.00
42859;BME280;28505;56.970;40.998;2024-03-02T21:21:10;101737.75;;;-4.32;100.00
42859;BME280;28505;56.970;40.998;2024-03-02T21:26:49;101723.13;;;-3.56;100.00
42859;BME280;28505;56.970;40.998;2024-03-02T21:32:23;101742.59;;;-3.15;100.00
42859;BME280;28505;56.970;40.998;2024-03-02T21:37:46;101726.41;;;-4.50;100.00
42859;BME280;28505;56.970;40.998;2024-03-02T21:43:09;101748.22;;;-3.44;100.00
42859;BME280;28505;56.970;40.998;2024-03-02T21:48:31;101730.88;;;-4.51;100.00
42859;BME280;28505;56.970;40.998;2024-03-02T21:53:54;101751.81;;;-3.53;100.00
42859;BME280;28505;56.970;40.998;2024-03-02T21:59:18;101751.63;;;-3.25;100.00
42859;BME280;28505;56.970;40.998;2024-03-02T22:04:41;101762.88;;;-4.02;100.00
42859;BME280;28505;56.970;40.998;2024-03-02T22:10:04;101767.84;;;-3.72;100.00
42859;BME280;28505;56.970;40.998;2024-03-02T22:15:27;101753.44;;;-3.18;100.00
42859;BME280;28505;56.970;40.998;2024-03-02T22:20:50;101754.56;;;-5.24;100.00
42859;BME280;28505;56.970;40.998;2024-03-02T22:26:12;101755.69;;;-3.65;100.00
42859;BME280;28505;56.970;40.998;2024-03-02T22:31:35;101750.09;;;-4.68;100.00
42859;BME280;28505;56.970;40.998;2024-03-02T22:36:58;101755.44;;;-4.60;100.00
42859;BME280;28505;56.970;40.998;2024-03-02T22:42:20;101744.34;;;-3.92;100.00
42859;BME280;28505;56.970;40.998;2024-03-02T22:47:43;101745.19;;;-5.73;100.00
42859;BME280;28505;56.970;40.998;2024-03-02T22:53:05;101756.50;;;-6.58;100.00
42859;BME280;28505;56.970;40.998;2024-03-02T22:58:28;101744.31;;;-5.54;100.00
42859;BME280;28505;56.970;40.998;2024-03-02T23:04:02;101754.91;;;-3.84;100.00
42859;BME280;28505;56.970;40.998;2024-03-02T23:09:37;101752.97;;;-3.82;100.00
42859;BME280;28505;56.970;40.998;2024-03-02T23:15:00;101741.50;;;-4.88;100.00
42859;BME280;28505;56.970;40.998;2024-03-02T23:20:23;101711.56;;;-5.97;100.00
42859;BME280;28505;56.970;40.998;2024-03-02T23:25:46;101724.91;;;-5.44;100.00
42859;BME280;28505;56.970;40.998;2024-03-02T23:31:09;101729.03;;;-4.14;100.00
42859;BME280;28505;56.970;40.998;2024-03-02T23:36:32;101721.50;;;-4.81;100.00
42859;BME280;28505;56.970;40.998;2024-03-02T23:41:54;101730.75;;;-4.23;100.00
42859;BME280;28505;56.970;40.998;2024-03-02T23:47:17;101738.13;;;-4.27;100.00
42859;BME280;28505;56.970;40.998;2024-03-02T23:52:52;101738.06;;;-5.91;100.00
42859;BME280;28505;56.970;40.998;2024-03-02T23:58:18;101734.91;;;-5.20;100.00
